Terminal Aerodrome Forecast
Issued by NWS

Home | Current Version | Previous Version | Text Only | Print | Product List | Glossary On
Versions: 1 2 3 4 5 6 7 8 9 10 11 12 13 14 15
760
FTUS43 KAPX 251258 AAA
TAFAPN
TAF AMD
KAPN 251258Z 2513/2612 06005KT P6SM SCT250
     FM251900 08007KT P6SM SCT250
     FM260000 11006KT P6SM SCT250
     FM260500 VRB03KT P6SM SHRA OVC050=

USA.gov is the U.S. government's official web portal to all federal, state and local government web resources and services.